sensor_id;sensor_type;location;lat;lon;timestamp;pressure;altitude;pressure_sealevel;temperature;humidity
39769;BME280;38939;47.824;14.642;2023-02-14T00:00:48;98806.53;;;2.09;85.08
39769;BME280;38939;47.824;14.642;2023-02-14T00:01:52;98800.66;;;2.07;84.90
39769;BME280;38939;47.824;14.642;2023-02-14T00:02:54;98790.97;;;1.98;85.21
39769;BME280;38939;47.824;14.642;2023-02-14T00:03:57;98805.47;;;1.99;85.30
39769;BME280;38939;47.824;14.642;2023-02-14T00:05:01;98800.31;;;1.99;85.50
39769;BME280;38939;47.824;14.642;2023-02-14T00:07:08;98795.38;;;1.96;85.76
39769;BME280;38939;47.824;14.642;2023-02-14T00:08:11;98801.16;;;1.99;86.52
39769;BME280;38939;47.824;14.642;2023-02-14T00:09:13;98798.47;;;2.01;86.29
39769;BME280;38939;47.824;14.642;2023-02-14T00:10:16;98803.44;;;2.04;85.86
39769;BME280;38939;47.824;14.642;2023-02-14T00:11:19;98805.06;;;2.05;86.50
39769;BME280;38939;47.824;14.642;2023-02-14T00:12:21;98796.63;;;2.03;86.29
39769;BME280;38939;47.824;14.642;2023-02-14T00:13:23;98803.63;;;2.01;86.31
39769;BME280;38939;47.824;14.642;2023-02-14T00:14:25;98795.38;;;1.96;86.06
39769;BME280;38939;47.824;14.642;2023-02-14T00:15:45;98802.00;;;2.00;86.30
39769;BME280;38939;47.824;14.642;2023-02-14T00:16:47;98796.84;;;2.00;86.98
39769;BME280;38939;47.824;14.642;2023-02-14T00:17:50;98798.47;;;2.01;86.24
39769;BME280;38939;47.824;14.642;2023-02-14T00:18:52;98801.16;;;1.99;87.01
39769;BME280;38939;47.824;14.642;2023-02-14T00:20:06;98803.84;;;1.98;86.95
39769;BME280;38939;47.824;14.642;2023-02-14T00:21:08;98804.44;;;1.89;86.74
39769;BME280;38939;47.824;14.642;2023-02-14T00:22:10;98801.75;;;1.90;87.08
39769;BME280;38939;47.824;14.642;2023-02-14T00:23:12;98800.72;;;1.93;87.26
39769;BME280;38939;47.824;14.642;2023-02-14T00:24:15;98802.75;;;1.88;87.79
39769;BME280;38939;47.824;14.642;2023-02-14T00:25:17;98815.13;;;1.83;88.05
39769;BME280;38939;47.824;14.642;2023-02-14T00:26:19;98812.53;;;1.83;87.65
39769;BME280;38939;47.824;14.642;2023-02-14T00:27:21;98807.72;;;1.91;87.19
39769;BME280;38939;47.824;14.642;2023-02-14T00:28:23;98804.75;;;1.97;87.49
39769;BME280;38939;47.824;14.642;2023-02-14T00:29:26;98811.66;;;1.96;87.93
39769;BME280;38939;47.824;14.642;2023-02-14T00:30:29;98821.75;;;1.99;87.80
39769;BME280;38939;47.824;14.642;2023-02-14T00:31:31;98820.91;;;1.99;87.05
39769;BME280;38939;47.824;14.642;2023-02-14T00:32:33;98822.59;;;2.00;87.71
39769;BME280;38939;47.824;14.642;2023-02-14T00:33:35;98831.75;;;2.04;86.58
39769;BME280;38939;47.824;14.642;2023-02-14T00:36:35;98832.69;;;2.16;86.90
39769;BME280;38939;47.824;14.642;2023-02-14T00:39:40;98851.75;;;2.26;86.13
39769;BME280;38939;47.824;14.642;2023-02-14T00:40:42;98839.72;;;2.27;85.56
39769;BME280;38939;47.824;14.642;2023-02-14T00:41:44;98842.31;;;2.27;85.87
39769;BME280;38939;47.824;14.642;2023-02-14T00:42:46;98833.72;;;2.26;85.43
39769;BME280;38939;47.824;14.642;2023-02-14T00:43:48;98841.16;;;2.31;85.64
39769;BME280;38939;47.824;14.642;2023-02-14T00:44:51;98840.94;;;2.34;85.19
39769;BME280;38939;47.824;14.642;2023-02-14T00:45:53;98846.72;;;2.37;84.62
39769;BME280;38939;47.824;14.642;2023-02-14T00:46:55;98848.59;;;2.35;84.56
39769;BME280;38939;47.824;14.642;2023-02-14T00:47:57;98847.69;;;2.36;84.45
39769;BME280;38939;47.824;14.642;2023-02-14T00:50:34;98846.09;;;2.34;84.46
39769;BME280;38939;47.824;14.642;2023-02-14T00:51:39;98851.06;;;2.37;84.41
39769;BME280;38939;47.824;14.642;2023-02-14T00:52:42;98843.34;;;2.37;83.89
39769;BME280;38939;47.824;14.642;2023-02-14T00:53:48;98848.50;;;2.37;84.22
39769;BME280;38939;47.824;14.642;2023-02-14T00:54:53;98840.94;;;2.34;84.52
39769;BME280;38939;47.824;14.642;2023-02-14T00:55:57;98846.72;;;2.25;85.20
39769;BME280;38939;47.824;14.642;2023-02-14T00:57:00;98845.38;;;2.19;85.48
39769;BME280;38939;47.824;14.642;2023-02-14T00:58:03;98840.22;;;2.19;85.13
39769;BME280;38939;47.824;14.642;2023-02-14T00:59:06;98843.31;;;2.24;85.46
39769;BME280;38939;47.824;14.642;2023-02-14T01:00:10;98843.22;;;2.26;85.36
39769;BME280;38939;47.824;14.642;2023-02-14T01:01:13;98839.72;;;2.27;85.33
39769;BME280;38939;47.824;14.642;2023-02-14T01:02:15;98833.63;;;2.28;84.75
39769;BME280;38939;47.824;14.642;2023-02-14T01:03:18;98835.28;;;2.29;84.80
39769;BME280;38939;47.824;14.642;2023-02-14T01:04:20;98832.28;;;2.22;85.04
39769;BME280;38939;47.824;14.642;2023-02-14T01:05:23;98835.78;;;2.21;85.44
39769;BME280;38939;47.824;14.642;2023-02-14T01:06:25;98828.16;;;2.19;85.30
39769;BME280;38939;47.824;14.642;2023-02-14T01:07:28;98826.81;;;2.14;85.35
39769;BME280;38939;47.824;14.642;2023-02-14T01:08:30;98824.88;;;2.17;85.43
39769;BME280;38939;47.824;14.642;2023-02-14T01:09:33;98821.25;;;2.20;85.36
39769;BME280;38939;47.824;14.642;2023-02-14T01:10:36;98818.28;;;2.13;86.44
39769;BME280;38939;47.824;14.642;2023-02-14T01:11:38;98817.63;;;2.10;85.72
39769;BME280;38939;47.824;14.642;2023-02-14T01:12:41;98818.56;;;2.09;86.57
39769;BME280;38939;47.824;14.642;2023-02-14T01:13:44;98821.16;;;2.09;85.74
39769;BME280;38939;47.824;14.642;2023-02-14T01:14:47;98821.97;;;2.09;86.15
39769;BME280;38939;47.824;14.642;2023-02-14T01:15:49;98825.47;;;2.08;85.87
39769;BME280;38939;47.824;14.642;2023-02-14T01:16:52;98824.03;;;2.04;86.79
39769;BME280;38939;47.824;14.642;2023-02-14T01:17:56;98823.81;;;2.07;86.05
39769;BME280;38939;47.824;14.642;2023-02-14T01:18:59;98821.16;;;2.09;85.88
39769;BME280;38939;47.824;14.642;2023-02-14T01:20:02;98825.28;;;2.11;86.73
39769;BME280;38939;47.824;14.642;2023-02-14T01:21:10;98816.63;;;2.12;86.61
39769;BME280;38939;47.824;14.642;2023-02-14T01:22:13;98823.94;;;2.18;86.63
39769;BME280;38939;47.824;14.642;2023-02-14T01:23:15;98823.72;;;2.22;85.80
39769;BME280;38939;47.824;14.642;2023-02-14T01:24:18;98824.03;;;2.17;85.77
39769;BME280;38939;47.824;14.642;2023-02-14T01:25:20;98825.47;;;2.08;85.69
39769;BME280;38939;47.824;14.642;2023-02-14T01:26:23;98822.19;;;2.06;86.20
39769;BME280;38939;47.824;14.642;2023-02-14T01:27:26;98817.75;;;2.08;86.23
39769;BME280;38939;47.824;14.642;2023-02-14T01:28:29;98819.94;;;2.14;86.04
39769;BME280;38939;47.824;14.642;2023-02-14T01:29:31;98826.53;;;2.18;86.10
39769;BME280;38939;47.824;14.642;2023-02-14T01:30:34;98818.91;;;2.17;86.42
39769;BME280;38939;47.824;14.642;2023-02-14T01:31:38;98821.25;;;2.07;86.31
39769;BME280;38939;47.824;14.642;2023-02-14T01:32:41;98828.56;;;2.00;86.29
39769;BME280;38939;47.824;14.642;2023-02-14T01:33:44;98819.28;;;1.98;86.85
39769;BME280;38939;47.824;14.642;2023-02-14T01:34:48;98817.44;;;2.00;86.87
39769;BME280;38939;47.824;14.642;2023-02-14T01:35:50;98823.31;;;2.02;86.03
39769;BME280;38939;47.824;14.642;2023-02-14T01:36:53;98814.13;;;1.98;86.58
39769;BME280;38939;47.824;14.642;2023-02-14T01:37:55;98812.66;;;1.94;86.51
39769;BME280;38939;47.824;14.642;2023-02-14T01:38:59;98819.28;;;1.98;87.09
39769;BME280;38939;47.824;14.642;2023-02-14T01:40:04;98822.19;;;2.06;86.88
39769;BME280;38939;47.824;14.642;2023-02-14T01:41:06;98810.84;;;2.09;85.97
39769;BME280;38939;47.824;14.642;2023-02-14T01:42:09;98812.78;;;2.05;85.81
39769;BME280;38939;47.824;14.642;2023-02-14T01:43:14;98809.50;;;2.03;86.52
39769;BME280;38939;47.824;14.642;2023-02-14T01:45:20;98809.00;;;2.11;86.57
39769;BME280;38939;47.824;14.642;2023-02-14T01:46:23;98810.53;;;2.13;85.97
39769;BME280;38939;47.824;14.642;2023-02-14T01:47:27;98806.84;;;2.17;85.54
39769;BME280;38939;47.824;14.642;2023-02-14T01:48:31;98803.44;;;2.17;85.33
39769;BME280;38939;47.824;14.642;2023-02-14T01:49:35;98806.34;;;2.12;85.58
39769;BME280;38939;47.824;14.642;2023-02-14T01:50:41;98799.53;;;2.11;85.37
39769;BME280;38939;47.824;14.642;2023-02-14T01:51:52;98807.34;;;2.10;85.92
39769;BME280;38939;47.824;14.642;2023-02-14T01:52:57;98800.97;;;2.03;86.49
39769;BME280;38939;47.824;14.642;2023-02-14T01:54:01;98806.28;;;1.99;86.76
39769;BME280;38939;47.824;14.642;2023-02-14T01:55:07;98797.22;;;1.94;86.06
39769;BME280;38939;47.824;14.642;2023-02-14T01:56:12;98795.38;;;1.96;86.01
39769;BME280;38939;47.824;14.642;2023-02-14T01:57:16;98797.28;;;1.79;86.75
39769;BME280;38939;47.824;14.642;2023-02-14T01:58:20;98791.72;;;1.73;86.97
39769;BME280;38939;47.824;14.642;2023-02-14T01:59:26;98795.13;;;1.73;87.38
39769;BME280;38939;47.824;14.642;2023-02-14T02:00:29;98799.03;;;1.79;87.72
39769;BME280;38939;47.824;14.642;2023-02-14T02:01:50;98790.28;;;1.69;87.83
39769;BME280;38939;47.824;14.642;2023-02-14T02:02:54;98781.81;;;1.67;87.70
39769;BME280;38939;47.824;14.642;2023-02-14T02:03:59;98786.06;;;1.68;88.23
39769;BME280;38939;47.824;14.642;2023-02-14T02:05:05;98782.00;;;1.64;88.35
39769;BME280;38939;47.824;14.642;2023-02-14T02:06:14;98788.66;;;1.53;88.66
39769;BME280;38939;47.824;14.642;2023-02-14T02:07:18;98785.16;;;1.42;88.38
39769;BME280;38939;47.824;14.642;2023-02-14T02:08:22;98787.72;;;1.42;88.81
39769;BME280;38939;47.824;14.642;2023-02-14T02:09:30;98786.41;;;1.49;88.50
39769;BME280;38939;47.824;14.642;2023-02-14T02:10:34;98782.63;;;1.54;89.20
39769;BME280;38939;47.824;14.642;2023-02-14T02:11:36;98784.25;;;1.55;88.87
39769;BME280;38939;47.824;14.642;2023-02-14T02:12:39;98780.13;;;1.53;88.21
39769;BME280;38939;47.824;14.642;2023-02-14T02:13:41;98777.94;;;1.47;89.06
39769;BME280;38939;47.824;14.642;2023-02-14T02:14:44;98782.59;;;1.42;88.87
39769;BME280;38939;47.824;14.642;2023-02-14T02:15:55;98779.38;;;1.38;88.46
39769;BME280;38939;47.824;14.642;2023-02-14T02:18:09;98767.53;;;1.35;89.26
39769;BME280;38939;47.824;14.642;2023-02-14T02:22:57;98768.66;;;1.31;88.68
39769;BME280;38939;47.824;14.642;2023-02-14T02:25:35;98770.28;;;1.32;89.56
39769;BME280;38939;47.824;14.642;2023-02-14T02:27:24;98771.03;;;1.34;89.60
39769;BME280;38939;47.824;14.642;2023-02-14T02:29:27;98762.81;;;1.42;89.41
39769;BME280;38939;47.824;14.642;2023-02-14T02:37:28;98755.81;;;1.31;89.29
39769;BME280;38939;47.824;14.642;2023-02-14T02:42:32;98761.22;;;1.27;88.58
39769;BME280;38939;47.824;14.642;2023-02-14T02:43:42;98764.41;;;1.30;88.51
39769;BME280;38939;47.824;14.642;2023-02-14T02:45:50;98768.66;;;1.31;88.56
39769;BME280;38939;47.824;14.642;2023-02-14T02:47:27;98765.91;;;1.20;88.65
39769;BME280;38939;47.824;14.642;2023-02-14T02:48:39;98760.56;;;1.23;89.35
39769;BME280;38939;47.824;14.642;2023-02-14T02:49:53;98773.03;;;1.29;88.89
39769;BME280;38939;47.824;14.642;2023-02-14T02:51:19;98764.97;;;1.35;88.64
39769;BME280;38939;47.824;14.642;2023-02-14T02:53:02;98760.72;;;1.34;88.62
39769;BME280;38939;47.824;14.642;2023-02-14T02:54:12;98757.59;;;1.44;88.75
39769;BME280;38939;47.824;14.642;2023-02-14T02:55:24;98762.94;;;1.53;88.90
39769;BME280;38939;47.824;14.642;2023-02-14T02:56:33;98765.13;;;1.59;87.78
39769;BME280;38939;47.824;14.642;2023-02-14T02:57:50;98756.59;;;1.59;88.16
39769;BME280;38939;47.824;14.642;2023-02-14T02:58:55;98761.00;;;1.57;87.57
39769;BME280;38939;47.824;14.642;2023-02-14T02:59:58;98756.81;;;1.56;87.70
39769;BME280;38939;47.824;14.642;2023-02-14T03:01:07;98754.75;;;1.61;88.07
39769;BME280;38939;47.824;14.642;2023-02-14T03:03:20;98760.13;;;1.71;87.82
39769;BME280;38939;47.824;14.642;2023-02-14T03:04:49;98761.56;;;1.62;87.47
39769;BME280;38939;47.824;14.642;2023-02-14T03:05:55;98751.66;;;1.56;87.61
39769;BME280;38939;47.824;14.642;2023-02-14T03:06:59;98762.75;;;1.56;86.82
39769;BME280;38939;47.824;14.642;2023-02-14T03:08:02;98763.88;;;1.52;87.75
39769;BME280;38939;47.824;14.642;2023-02-14T03:09:10;98762.13;;;1.53;87.88
39769;BME280;38939;47.824;14.642;2023-02-14T03:10:14;98754.94;;;1.58;87.56
39769;BME280;38939;47.824;14.642;2023-02-14T03:11:17;98764.69;;;1.53;87.36
39769;BME280;38939;47.824;14.642;2023-02-14T03:13:33;98756.94;;;1.40;87.99
39769;BME280;38939;47.824;14.642;2023-02-14T03:15:50;98765.25;;;1.31;87.88
39769;BME280;38939;47.824;14.642;2023-02-14T03:19:20;98765.63;;;1.25;88.54
39769;BME280;38939;47.824;14.642;2023-02-14T03:21:43;98770.69;;;1.26;88.46
39769;BME280;38939;47.824;14.642;2023-02-14T03:23:53;98771.25;;;1.17;88.47
39769;BME280;38939;47.824;14.642;2023-02-14T03:26:09;98761.41;;;1.24;89.52
39769;BME280;38939;47.824;14.642;2023-02-14T03:30:45;98773.25;;;1.26;88.91
39769;BME280;38939;47.824;14.642;2023-02-14T03:32:59;98777.09;;;1.33;89.18
39769;BME280;38939;47.824;14.642;2023-02-14T03:35:19;98768.41;;;1.22;88.52
39769;BME280;38939;47.824;14.642;2023-02-14T03:36:25;98768.50;;;1.20;88.36
39769;BME280;38939;47.824;14.642;2023-02-14T03:37:33;98771.78;;;1.22;88.75
39769;BME280;38939;47.824;14.642;2023-02-14T03:39:51;98772.88;;;1.32;88.97
39769;BME280;38939;47.824;14.642;2023-02-14T03:40:58;98773.41;;;1.37;88.78
39769;BME280;38939;47.824;14.642;2023-02-14T03:42:04;98770.13;;;1.35;88.02
39769;BME280;38939;47.824;14.642;2023-02-14T03:43:13;98771.56;;;1.39;88.64
39769;BME280;38939;47.824;14.642;2023-02-14T03:44:17;98768.69;;;1.44;88.81
39769;BME280;38939;47.824;14.642;2023-02-14T03:45:22;98767.88;;;1.44;88.49
39769;BME280;38939;47.824;14.642;2023-02-14T03:46:38;98761.16;;;1.41;88.50
39769;BME280;38939;47.824;14.642;2023-02-14T03:47:42;98763.63;;;1.43;87.44
39769;BME280;38939;47.824;14.642;2023-02-14T03:48:45;98762.81;;;1.42;88.49
39769;BME280;38939;47.824;14.642;2023-02-14T03:49:50;98764.38;;;1.45;87.90
39769;BME280;38939;47.824;14.642;2023-02-14T03:50:54;98763.56;;;1.44;87.38
39769;BME280;38939;47.824;14.642;2023-02-14T03:51:58;98762.72;;;1.44;88.01
39769;BME280;38939;47.824;14.642;2023-02-14T03:53:02;98761.78;;;1.45;87.21
39769;BME280;38939;47.824;14.642;2023-02-14T03:54:06;98759.63;;;1.38;87.43
39769;BME280;38939;47.824;14.642;2023-02-14T03:55:10;98763.69;;;1.28;87.91
39769;BME280;38939;47.824;14.642;2023-02-14T03:57:37;98769.06;;;1.11;88.46
39769;BME280;38939;47.824;14.642;2023-02-14T03:58:47;98767.84;;;1.16;88.37
39769;BME280;38939;47.824;14.642;2023-02-14T03:59:52;98766.84;;;1.19;88.86
39769;BME280;38939;47.824;14.642;2023-02-14T04:00:56;98762.97;;;1.26;88.85
39769;BME280;38939;47.824;14.642;2023-02-14T04:02:06;98763.50;;;1.31;88.98
39769;BME280;38939;47.824;14.642;2023-02-14T04:03:10;98754.13;;;1.30;88.55
39769;BME280;38939;47.824;14.642;2023-02-14T04:04:15;98757.53;;;1.31;88.72
39769;BME280;38939;47.824;14.642;2023-02-14T04:05:22;98758.25;;;1.33;87.99
39769;BME280;38939;47.824;14.642;2023-02-14T04:06:26;98758.16;;;1.34;88.13
39769;BME280;38939;47.824;14.642;2023-02-14T04:07:28;98760.19;;;1.29;87.81
39769;BME280;38939;47.824;14.642;2023-02-14T04:08:31;98759.28;;;1.30;88.13
39769;BME280;38939;47.824;14.642;2023-02-14T04:09:33;98756.72;;;1.30;88.25
39769;BME280;38939;47.824;14.642;2023-02-14T04:10:36;98754.53;;;1.24;88.58
39769;BME280;38939;47.824;14.642;2023-02-14T04:11:40;98760.78;;;1.20;88.38
39769;BME280;38939;47.824;14.642;2023-02-14T04:12:43;98755.63;;;1.20;88.53
39769;BME280;38939;47.824;14.642;2023-02-14T04:13:46;98751.31;;;1.20;88.23
39769;BME280;38939;47.824;14.642;2023-02-14T04:14:48;98756.28;;;1.24;88.57
39769;BME280;38939;47.824;14.642;2023-02-14T04:15:51;98753.59;;;1.25;88.50
39769;BME280;38939;47.824;14.642;2023-02-14T04:16:54;98748.34;;;1.27;87.74
39769;BME280;38939;47.824;14.642;2023-02-14T04:18:14;98746.09;;;1.22;88.24
39769;BME280;38939;47.824;14.642;2023-02-14T04:19:35;98747.53;;;1.26;88.22
39769;BME280;38939;47.824;14.642;2023-02-14T04:20:38;98749.09;;;1.29;88.06
39769;BME280;38939;47.824;14.642;2023-02-14T04:21:40;98745.16;;;1.23;87.48
39769;BME280;38939;47.824;14.642;2023-02-14T04:22:43;98748.34;;;1.27;88.24
39769;BME280;38939;47.824;14.642;2023-02-14T04:23:48;98742.31;;;1.28;88.46
39769;BME280;38939;47.824;14.642;2023-02-14T04:24:50;98741.19;;;1.32;88.21
39769;BME280;38939;47.824;14.642;2023-02-14T04:25:53;98741.91;;;1.34;87.77
39769;BME280;38939;47.824;14.642;2023-02-14T04:26:55;98739.84;;;1.39;87.90
39769;BME280;38939;47.824;14.642;2023-02-14T04:28:14;98740.72;;;1.39;87.30
39769;BME280;38939;47.824;14.642;2023-02-14T04:29:17;98746.56;;;1.42;87.68
39769;BME280;38939;47.824;14.642;2023-02-14T04:30:19;98742.44;;;1.39;87.26
39769;BME280;38939;47.824;14.642;2023-02-14T04:31:23;98741.63;;;1.38;86.86
39769;BME280;38939;47.824;14.642;2023-02-14T04:32:26;98742.44;;;1.39;87.46
39769;BME280;38939;47.824;14.642;2023-02-14T04:33:29;98744.00;;;1.42;87.49
39769;BME280;38939;47.824;14.642;2023-02-14T04:34:31;98735.22;;;1.31;87.54
39769;BME280;38939;47.824;14.642;2023-02-14T04:35:34;98742.56;;;1.23;87.12
39769;BME280;38939;47.824;14.642;2023-02-14T04:36:36;98735.06;;;1.20;87.23
39769;BME280;38939;47.824;14.642;2023-02-14T04:37:39;98734.44;;;1.16;87.26
39769;BME280;38939;47.824;14.642;2023-02-14T04:38:42;98731.94;;;1.15;88.12
39769;BME280;38939;47.824;14.642;2023-02-14T04:39:44;98730.75;;;1.20;87.95
39769;BME280;38939;47.824;14.642;2023-02-14T04:40:49;98734.44;;;1.16;88.08
39769;BME280;38939;47.824;14.642;2023-02-14T04:41:52;98734.53;;;1.15;87.29
39769;BME280;38939;47.824;14.642;2023-02-14T04:42:55;98728.47;;;1.16;87.33
39769;BME280;38939;47.824;14.642;2023-02-14T04:43:58;98735.47;;;1.14;87.30
39769;BME280;38939;47.824;14.642;2023-02-14T04:45:00;98733.78;;;1.13;87.96
39769;BME280;38939;47.824;14.642;2023-02-14T04:46:04;98731.94;;;1.15;87.35
39769;BME280;38939;47.824;14.642;2023-02-14T04:47:07;98737.66;;;1.20;87.68
39769;BME280;38939;47.824;14.642;2023-02-14T04:48:09;98732.28;;;1.23;87.29
39769;BME280;38939;47.824;14.642;2023-02-14T04:49:13;98730.09;;;1.31;88.15
39769;BME280;38939;47.824;14.642;2023-02-14T04:50:15;98732.44;;;1.34;87.02
39769;BME280;38939;47.824;14.642;2023-02-14T04:51:18;98734.09;;;1.35;87.78
39769;BME280;38939;47.824;14.642;2023-02-14T04:52:21;98735.75;;;1.36;86.84
39769;BME280;38939;47.824;14.642;2023-02-14T04:53:23;98734.84;;;1.37;86.65
39769;BME280;38939;47.824;14.642;2023-02-14T04:54:26;98731.00;;;1.30;86.36
39769;BME280;38939;47.824;14.642;2023-02-14T04:55:28;98732.41;;;1.22;86.73
39769;BME280;38939;47.824;14.642;2023-02-14T04:56:31;98735.38;;;1.15;87.01
39769;BME280;38939;47.824;14.642;2023-02-14T04:57:35;98738.94;;;1.13;86.74
39769;BME280;38939;47.824;14.642;2023-02-14T04:58:37;98739.97;;;1.10;86.88
39769;BME280;38939;47.824;14.642;2023-02-14T04:59:39;98732.34;;;1.09;87.26
39769;BME280;38939;47.824;14.642;2023-02-14T05:00:42;98730.50;;;1.11;87.21
39769;BME280;38939;47.824;14.642;2023-02-14T05:01:45;98727.66;;;1.15;87.55
39769;BME280;38939;47.824;14.642;2023-02-14T05:02:47;98738.84;;;1.14;87.21
39769;BME280;38939;47.824;14.642;2023-02-14T05:03:49;98733.03;;;0.98;87.91
39769;BME280;38939;47.824;14.642;2023-02-14T05:04:52;98731.66;;;0.92;87.80
39769;BME280;38939;47.824;14.642;2023-02-14T05:05:55;98729.81;;;0.94;88.01
39769;BME280;38939;47.824;14.642;2023-02-14T05:06:57;98731.47;;;0.95;87.85
39769;BME280;38939;47.824;14.642;2023-02-14T05:08:00;98732.94;;;0.99;87.55
39769;BME280;38939;47.824;14.642;2023-02-14T05:09:02;98734.47;;;1.02;87.92
39769;BME280;38939;47.824;14.642;2023-02-14T05:10:05;98738.59;;;1.05;87.88
39769;BME280;38939;47.824;14.642;2023-02-14T05:11:07;98733.47;;;1.05;87.45
39769;BME280;38939;47.824;14.642;2023-02-14T05:12:10;98727.19;;;1.09;88.05
39769;BME280;38939;47.824;14.642;2023-02-14T05:13:13;98732.16;;;1.12;87.87
39769;BME280;38939;47.824;14.642;2023-02-14T05:14:15;98726.94;;;1.13;87.81
39769;BME280;38939;47.824;14.642;2023-02-14T05:15:17;98726.94;;;1.13;87.49
39769;BME280;38939;47.824;14.642;2023-02-14T05:16:20;98728.47;;;1.16;87.42
39769;BME280;38939;47.824;14.642;2023-02-14T05:17:23;98723.34;;;1.16;86.78
39769;BME280;38939;47.824;14.642;2023-02-14T05:18:25;98717.97;;;1.19;86.69
39769;BME280;38939;47.824;14.642;2023-02-14T05:19:28;98719.75;;;1.18;86.87
39769;BME280;38939;47.824;14.642;2023-02-14T05:20:31;98719.66;;;1.20;86.43
39769;BME280;38939;47.824;14.642;2023-02-14T05:21:33;98726.25;;;1.24;86.44
39769;BME280;38939;47.824;14.642;2023-02-14T05:22:36;98721.53;;;1.31;86.32
39769;BME280;38939;47.824;14.642;2023-02-14T05:23:38;98722.56;;;1.28;87.07
39769;BME280;38939;47.824;14.642;2023-02-14T05:24:41;98719.25;;;1.26;86.97
39769;BME280;38939;47.824;14.642;2023-02-14T05:25:46;98716.88;;;1.23;86.56
39769;BME280;38939;47.824;14.642;2023-02-14T05:26:48;98724.25;;;1.15;86.39
39769;BME280;38939;47.824;14.642;2023-02-14T05:27:51;98717.50;;;0.99;86.66
39769;BME280;38939;47.824;14.642;2023-02-14T05:28:53;98718.91;;;0.91;87.02
39769;BME280;38939;47.824;14.642;2023-02-14T05:29:56;98723.22;;;0.90;87.31
39769;BME280;38939;47.824;14.642;2023-02-14T05:30:58;98722.78;;;0.84;87.90
39769;BME280;38939;47.824;14.642;2023-02-14T05:32:02;98722.53;;;0.74;88.34
39769;BME280;38939;47.824;14.642;2023-02-14T05:33:04;98725.00;;;0.75;88.65
39769;BME280;38939;47.824;14.642;2023-02-14T05:34:07;98718.47;;;0.84;88.37
39769;BME280;38939;47.824;14.642;2023-02-14T05:35:10;98724.16;;;0.89;88.67
39769;BME280;38939;47.824;14.642;2023-02-14T05:36:13;98723.41;;;0.87;87.66
39769;BME280;38939;47.824;14.642;2023-02-14T05:37:15;98721.59;;;0.89;88.04
39769;BME280;38939;47.824;14.642;2023-02-14T05:38:18;98729.47;;;0.86;88.17
39769;BME280;38939;47.824;14.642;2023-02-14T05:39:21;98730.19;;;0.88;88.00
39769;BME280;38939;47.824;14.642;2023-02-14T05:40:23;98728.56;;;0.87;88.20
39769;BME280;38939;47.824;14.642;2023-02-14T05:41:24;98726.06;;;0.86;88.45
39769;BME280;38939;47.824;14.642;2023-02-14T05:42:27;98729.91;;;0.93;87.86
39769;BME280;38939;47.824;14.642;2023-02-14T05:43:29;98731.28;;;0.98;88.00
39769;BME280;38939;47.824;14.642;2023-02-14T05:44:32;98738.06;;;0.99;87.09
39769;BME280;38939;47.824;14.642;2023-02-14T05:45:34;98734.88;;;0.96;87.01
39769;BME280;38939;47.824;14.642;2023-02-14T05:46:37;98733.03;;;0.98;86.85
39769;BME280;38939;47.824;14.642;2023-02-14T05:47:39;98732.00;;;1.00;87.51
39769;BME280;38939;47.824;14.642;2023-02-14T05:48:42;98734.56;;;1.00;86.72
39769;BME280;38939;47.824;14.642;2023-02-14T05:49:46;98734.94;;;0.94;87.04
39769;BME280;38939;47.824;14.642;2023-02-14T05:50:49;98732.28;;;0.96;87.44
39769;BME280;38939;47.824;14.642;2023-02-14T05:51:52;98732.69;;;0.90;87.08
39769;BME280;38939;47.824;14.642;2023-02-14T05:52:55;98734.59;;;0.86;86.84
39769;BME280;38939;47.824;14.642;2023-02-14T05:53:58;98734.69;;;0.85;87.43
39769;BME280;38939;47.824;14.642;2023-02-14T05:55:03;98741.19;;;0.90;87.95
39769;BME280;38939;47.824;14.642;2023-02-14T05:56:06;98737.44;;;0.96;87.29
39769;BME280;38939;47.824;14.642;2023-02-14T05:57:10;98733.09;;;0.96;87.30
39769;BME280;38939;47.824;14.642;2023-02-14T05:58:13;98733.47;;;1.05;86.85
39769;BME280;38939;47.824;14.642;2023-02-14T05:59:17;98733.38;;;1.06;87.12
39769;BME280;38939;47.824;14.642;2023-02-14T06:00:20;98734.00;;;1.10;87.08
39769;BME280;38939;47.824;14.642;2023-02-14T06:01:26;98736.56;;;1.10;86.83
39769;BME280;38939;47.824;14.642;2023-02-14T06:02:29;98740.34;;;1.04;87.02
39769;BME280;38939;47.824;14.642;2023-02-14T06:03:33;98739.81;;;0.99;87.08
39769;BME280;38939;47.824;14.642;2023-02-14T06:04:36;98740.72;;;0.98;87.21
39769;BME280;38939;47.824;14.642;2023-02-14T06:05:39;98744.13;;;0.98;87.24
39769;BME280;38939;47.824;14.642;2023-02-14T06:06:43;98739.19;;;0.95;86.91
39769;BME280;38939;47.824;14.642;2023-02-14T06:07:49;98742.66;;;0.94;86.88
39769;BME280;38939;47.824;14.642;2023-02-14T06:08:53;98746.16;;;0.93;86.74
39769;BME280;38939;47.824;14.642;2023-02-14T06:09:56;98745.53;;;0.90;87.40
39769;BME280;38939;47.824;14.642;2023-02-14T06:11:02;98741.03;;;0.93;86.80
39769;BME280;38939;47.824;14.642;2023-02-14T06:12:05;98751.09;;;0.96;86.79
39769;BME280;38939;47.824;14.642;2023-02-14T06:13:09;98744.97;;;0.99;86.92
39769;BME280;38939;47.824;14.642;2023-02-14T06:14:12;98746.31;;;1.05;87.03
39769;BME280;38939;47.824;14.642;2023-02-14T06:15:15;98747.59;;;1.12;86.49
39769;BME280;38939;47.824;14.642;2023-02-14T06:16:22;98752.34;;;1.18;87.24
39769;BME280;38939;47.824;14.642;2023-02-14T06:17:44;98757.81;;;1.26;86.56
39769;BME280;38939;47.824;14.642;2023-02-14T06:18:55;98757.72;;;1.28;86.16
39769;BME280;38939;47.824;14.642;2023-02-14T06:20:02;98752.78;;;1.25;86.63
39769;BME280;38939;47.824;14.642;2023-02-14T06:21:06;98747.00;;;1.21;86.41
39769;BME280;38939;47.824;14.642;2023-02-14T06:22:10;98758.72;;;1.25;86.05
39769;BME280;38939;47.824;14.642;2023-02-14T06:23:13;98754.63;;;1.23;85.84
39769;BME280;38939;47.824;14.642;2023-02-14T06:24:15;98757.66;;;1.15;85.68
39769;BME280;38939;47.824;14.642;2023-02-14T06:25:22;98751.06;;;1.11;86.59
39769;BME280;38939;47.824;14.642;2023-02-14T06:26:24;98756.84;;;1.14;85.83
39769;BME280;38939;47.824;14.642;2023-02-14T06:27:29;98756.53;;;1.19;86.04